Vlodrop, Netherlands
Current Conditions -  °F | °C
As of 10:50 PM on Thursday 18 Dec 2014 (Local Time) from ETNG Reporting Station
Drizzle Drizzle  
Wind Chill: 54°   Ceiling: 1400
Heat Index: 54°   Visibility: 3mi
Dew Point: 50°   Wind: 22mph
Humidity: 88%   Direction: 240°WSW
Pressure: 29.91"   Gusts: 41mph
Location:  51.13°N, 6.08°E
Report Text: ETNG 182150Z 24019G36KT 5000 -DZ SCT010 BKN014 12/10 Q1013 REDZ
Loading
Personal Weather Stations






























Interactive Weather Map New forecast layout! Learn more

10-Day Weather Forecast

Advertisements
Track Severe Weather on mobile